Time;durP1;ratioP1;P1;durP2;ratioP2;P2;SDS_P1;SDS_P2;PMS_P1;PMS_P2;Temp;Humidity;BMP_temperature;BMP_pressure;BME280_temperature;BME280_humidity;BME280_pressure;Samples;Min_cycle;Max_cycle;Signal;HPM_P1;HPM_P2
2023/04/30 00:01:36;;;;;;;7.15;2.55;;;;;;;6.15;100.00;102453.94;5026030;28;20423;-84
2023/04/30 00:04:05;;;;;;;7.50;2.88;;;;;;;6.11;100.00;102452.00;4995294;28;20050;-83
2023/04/30 00:06:32;;;;;;;7.35;2.35;;;;;;;6.06;100.00;102450.88;5005235;28;20793;-83
2023/04/30 00:09:00;;;;;;;6.75;2.65;;;;;;;6.04;100.00;102453.41;4997691;28;20056;-81
2023/04/30 00:11:27;;;;;;;6.05;2.53;;;;;;;6.01;100.00;102449.75;5026524;28;20052;-83
2023/04/30 00:13:55;;;;;;;4.65;2.47;;;;;;;5.97;100.00;102453.06;4993052;28;20061;-82
2023/04/30 00:16:23;;;;;;;6.93;2.83;;;;;;;5.94;100.00;102443.31;5001912;28;20045;-82
2023/04/30 00:18:50;;;;;;;5.30;2.53;;;;;;;5.90;100.00;102449.22;4994674;28;20050;-82
2023/04/30 00:21:17;;;;;;;5.43;2.50;;;;;;;5.86;100.00;102449.91;5010300;28;20053;-82
2023/04/30 00:23:45;;;;;;;7.85;2.40;;;;;;;5.83;100.00;102441.91;5019632;28;20468;-81
2023/04/30 00:26:12;;;;;;;6.95;2.67;;;;;;;5.81;100.00;102439.22;4993127;28;20049;-81
2023/04/30 00:28:42;;;;;;;8.68;2.92;;;;;;;5.78;100.00;102443.41;5025758;28;20502;-81
2023/04/30 00:31:10;;;;;;;7.93;2.85;;;;;;;5.76;100.00;102430.22;5010353;28;20050;-82
2023/04/30 00:33:37;;;;;;;5.45;2.92;;;;;;;5.76;100.00;102438.09;5023864;28;20048;-82
2023/04/30 00:36:04;;;;;;;9.63;3.15;;;;;;;5.73;100.00;102451.03;4999239;28;20049;-81
2023/04/30 00:38:32;;;;;;;5.60;2.60;;;;;;;5.70;100.00;102445.63;5040586;28;20045;-82
2023/04/30 00:40:59;;;;;;;7.00;2.80;;;;;;;5.68;100.00;102449.91;4960271;28;20056;-82
2023/04/30 00:43:26;;;;;;;4.78;2.45;;;;;;;5.66;100.00;102451.56;5008131;28;20053;-81
2023/04/30 00:45:54;;;;;;;5.28;2.35;;;;;;;5.62;100.00;102454.84;5000732;28;20522;-82
2023/04/30 00:48:23;;;;;;;8.45;2.53;;;;;;;5.58;100.00;102448.56;5004742;28;20394;-81
2023/04/30 00:50:51;;;;;;;8.18;3.53;;;;;;;5.57;100.00;102458.94;5010719;28;20211;-82
2023/04/30 00:53:19;;;;;;;9.25;2.50;;;;;;;5.55;100.00;102468.44;4993473;28;20049;-81
2023/04/30 00:55:47;;;;;;;7.85;2.65;;;;;;;5.53;100.00;102473.56;4971515;28;20076;-81
2023/04/30 00:58:14;;;;;;;4.30;2.90;;;;;;;5.51;100.00;102472.59;4989947;28;20057;-82
2023/04/30 01:00:45;;;;;;;3.72;2.40;;;;;;;5.51;100.00;102469.09;5005014;28;20406;-83
2023/04/30 01:03:13;;;;;;;4.75;2.90;;;;;;;5.49;100.00;102465.53;5026643;28;20498;-82
2023/04/30 01:05:41;;;;;;;6.80;2.55;;;;;;;5.45;100.00;102467.97;4983546;28;20801;-82
2023/04/30 01:08:09;;;;;;;7.32;2.67;;;;;;;5.43;100.00;102466.09;5030214;28;20049;-82
2023/04/30 01:11:01;;;;;;;5.50;2.72;;;;;;;5.41;100.00;102467.75;5026429;28;20045;-81
2023/04/30 01:13:38;;;;;;;4.32;2.50;;;;;;;5.39;100.00;102462.44;4998851;28;20060;-82
2023/04/30 01:16:11;;;;;;;8.57;2.88;;;;;;;5.38;100.00;102468.47;5028924;28;20048;-82
2023/04/30 01:18:43;;;;;;;6.43;2.97;;;;;;;5.35;100.00;102472.66;5025207;28;20046;-82
2023/04/30 01:21:12;;;;;;;9.45;2.92;;;;;;;5.33;100.00;102469.06;5027128;28;20054;-82
2023/04/30 01:24:10;;;;;;;7.70;2.85;;;;;;;5.30;100.00;102474.16;5025179;28;20069;-82
2023/04/30 01:26:52;;;;;;;6.82;2.60;;;;;;;5.27;100.00;102467.03;5020869;28;20064;-83
2023/04/30 01:29:21;;;;;;;6.70;2.67;;;;;;;5.25;100.00;102473.91;4972564;28;20442;-82
2023/04/30 01:31:48;;;;;;;5.18;2.50;;;;;;;5.24;100.00;102478.25;5010673;28;20053;-83
2023/04/30 01:34:16;;;;;;;7.75;2.97;;;;;;;5.21;100.00;102478.06;5026799;28;20045;-82
2023/04/30 01:37:06;;;;;;;7.45;2.53;;;;;;;5.19;100.00;102474.47;5005956;28;20046;-83
2023/04/30 01:39:41;;;;;;;4.85;2.33;;;;;;;5.17;100.00;102483.06;5019644;28;20041;-82
2023/04/30 01:42:32;;;;;;;6.38;2.80;;;;;;;5.14;100.00;102475.06;5029321;28;20057;-81
2023/04/30 01:45:17;;;;;;;6.68;2.80;;;;;;;5.13;100.00;102481.13;4994696;28;20049;-83
2023/04/30 01:47:56;;;;;;;6.95;2.38;;;;;;;5.10;100.00;102487.06;5020885;28;20565;-82
2023/04/30 01:50:56;;;;;;;6.03;2.78;;;;;;;5.09;100.00;102485.28;5043858;28;20041;-82
2023/04/30 01:53:31;;;;;;;7.72;2.88;;;;;;;5.06;100.00;102483.41;5039634;28;20056;-80
2023/04/30 01:56:03;;;;;;;6.20;2.80;;;;;;;5.05;100.00;102480.75;5030885;28;20731;-82
2023/04/30 01:58:31;;;;;;;6.25;2.47;;;;;;;5.04;100.00;102482.44;5004294;28;20403;-82
2023/04/30 02:00:58;;;;;;;8.60;3.60;;;;;;;5.01;100.00;102471.84;4987375;28;20057;-82
2023/04/30 02:03:26;;;;;;;7.38;2.83;;;;;;;4.99;100.00;102475.16;5028045;28;20056;-82
2023/04/30 02:05:54;;;;;;;6.40;2.72;;;;;;;4.98;100.00;102471.66;5014003;28;20046;-82
2023/04/30 02:08:21;;;;;;;4.60;2.50;;;;;;;4.97;100.00;102480.34;5028009;28;20046;-81
2023/04/30 02:10:48;;;;;;;3.33;2.58;;;;;;;4.94;100.00;102474.94;4994204;28;20045;-81
2023/04/30 02:13:16;;;;;;;7.03;2.95;;;;;;;4.93;100.00;102486.19;4997752;28;20050;-81
2023/04/30 02:15:44;;;;;;;7.57;2.92;;;;;;;4.92;100.00;102487.03;4990648;28;20086;-83
2023/04/30 02:18:11;;;;;;;4.60;2.80;;;;;;;4.90;100.00;102486.06;5013543;28;20041;-82
2023/04/30 02:20:38;;;;;;;4.00;2.60;;;;;;;4.87;100.00;102489.38;5011773;28;20049;-82
2023/04/30 02:23:08;;;;;;;10.20;3.45;;;;;;;4.86;100.00;102471.94;5014273;28;20060;-82
2023/04/30 02:25:37;;;;;;;10.05;3.10;;;;;;;4.84;100.00;102472.69;5011397;28;20180;-82
2023/04/30 02:28:05;;;;;;;3.83;3.17;;;;;;;4.82;100.00;102476.91;5030221;28;20041;-81
2023/04/30 02:30:34;;;;;;;8.00;2.90;;;;;;;4.78;100.00;102472.34;4994988;28;20045;-81
2023/04/30 02:33:02;;;;;;;5.85;2.47;;;;;;;4.77;100.00;102470.56;5008677;28;20154;-82
2023/04/30 02:35:29;;;;;;;10.70;2.88;;;;;;;4.75;100.00;102470.47;5042459;28;20050;-83
2023/04/30 02:37:57;;;;;;;6.00;2.83;;;;;;;4.74;100.00;102481.72;5030301;28;20033;-83
2023/04/30 02:40:25;;;;;;;5.35;3.20;;;;;;;4.73;100.00;102474.72;5008689;28;20053;-82
2023/04/30 02:42:53;;;;;;;4.65;2.70;;;;;;;4.73;100.00;102476.44;5031297;28;20391;-82
2023/04/30 02:45:22;;;;;;;5.50;2.70;;;;;;;4.71;100.00;102478.03;5008647;28;20046;-81
2023/04/30 02:47:49;;;;;;;5.18;2.70;;;;;;;4.68;100.00;102482.28;5030105;28;20056;-83
2023/04/30 02:50:17;;;;;;;6.72;2.80;;;;;;;4.68;100.00;102478.78;5021431;28;20038;-81
2023/04/30 02:52:45;;;;;;;5.43;2.47;;;;;;;4.64;100.00;102474.22;5034103;28;20056;-82
2023/04/30 02:55:14;;;;;;;3.50;2.67;;;;;;;4.63;100.00;102483.78;5029222;28;20430;-81
2023/04/30 02:57:41;;;;;;;5.40;2.78;;;;;;;4.61;100.00;102469.75;5043137;28;20042;-81
2023/04/30 03:00:09;;;;;;;6.10;2.80;;;;;;;4.61;100.00;102474.97;4994735;28;20045;-81
2023/04/30 03:02:37;;;;;;;5.63;2.70;;;;;;;4.59;100.00;102476.56;5011644;28;20045;-81
2023/04/30 03:05:05;;;;;;;5.43;3.00;;;;;;;4.58;100.00;102473.91;5010548;28;20050;-81
2023/04/30 03:07:32;;;;;;;5.53;2.63;;;;;;;4.56;100.00;102476.44;4997563;28;20053;-80
2023/04/30 03:10:00;;;;;;;7.63;2.83;;;;;;;4.54;100.00;102475.44;5010199;28;20050;-81
2023/04/30 03:12:28;;;;;;;4.35;2.38;;;;;;;4.54;100.00;102482.34;5005018;28;20050;-81
2023/04/30 03:14:55;;;;;;;9.25;2.75;;;;;;;4.53;100.00;102486.69;4985637;28;20072;-81
2023/04/30 03:17:23;;;;;;;4.40;2.72;;;;;;;4.48;100.00;102483.84;4972380;28;20054;-80
2023/04/30 03:19:51;;;;;;;3.85;2.70;;;;;;;4.47;100.00;102488.97;5007479;28;20058;-81
2023/04/30 03:22:19;;;;;;;8.07;3.28;;;;;;;4.46;100.00;102481.94;4975340;28;20058;-81
2023/04/30 03:24:46;;;;;;;6.00;2.65;;;;;;;4.46;100.00;102481.94;5008152;28;20061;-80
2023/04/30 03:27:15;;;;;;;4.00;2.83;;;;;;;4.44;100.00;102488.78;5014564;28;20069;-82
2023/04/30 03:29:43;;;;;;;7.03;2.65;;;;;;;4.42;100.00;102493.03;4974531;28;20057;-80
2023/04/30 03:32:10;;;;;;;4.95;2.88;;;;;;;4.39;100.00;102487.66;4997255;28;20439;-81
2023/04/30 03:34:37;;;;;;;5.18;3.08;;;;;;;4.38;100.00;102478.91;4989820;28;20054;-81
2023/04/30 03:37:05;;;;;;;4.47;3.03;;;;;;;4.35;100.00;102491.81;5039999;28;20050;-82
2023/04/30 03:39:32;;;;;;;6.97;3.30;;;;;;;4.34;100.00;102499.56;4993813;28;20487;-80
2023/04/30 03:42:02;;;;;;;7.90;2.72;;;;;;;4.32;100.00;102498.59;4975240;28;20060;-81
2023/04/30 03:44:29;;;;;;;9.60;4.03;;;;;;;4.30;100.00;102495.88;5009562;28;20046;-84
2023/04/30 03:46:57;;;;;;;5.30;3.17;;;;;;;4.29;100.00;102492.38;4977121;28;20311;-83
2023/04/30 03:49:24;;;;;;;6.13;3.08;;;;;;;4.28;100.00;102498.41;4994646;28;20726;-81
2023/04/30 03:51:51;;;;;;;7.60;3.45;;;;;;;4.28;100.00;102497.50;4974937;28;20058;-81
2023/04/30 03:54:19;;;;;;;6.53;3.72;;;;;;;4.26;100.00;102507.88;4994372;28;20057;-83
2023/04/30 03:56:46;;;;;;;6.05;3.28;;;;;;;4.27;100.00;102506.13;4993689;28;20064;-82
2023/04/30 03:59:14;;;;;;;3.63;3.30;;;;;;;4.24;100.00;102504.28;4996653;28;20050;-83
2023/04/30 04:01:41;;;;;;;6.15;3.60;;;;;;;4.24;100.00;102503.38;4955898;28;20053;-81
2023/04/30 04:04:09;;;;;;;4.75;3.22;;;;;;;4.23;100.00;102510.28;4989340;28;20058;-81
2023/04/30 04:06:37;;;;;;;9.48;3.80;;;;;;;4.24;100.00;102508.59;5006898;28;20053;-83
2023/04/30 04:09:05;;;;;;;8.00;3.58;;;;;;;4.23;100.00;102506.78;5011267;28;20049;-80
2023/04/30 04:11:33;;;;;;;6.72;3.95;;;;;;;4.23;100.00;102510.28;5044694;28;20075;-81
2023/04/30 04:14:01;;;;;;;4.32;3.00;;;;;;;4.23;100.00;102512.91;5009002;28;20064;-81
2023/04/30 04:16:28;;;;;;;4.95;4.07;;;;;;;4.26;100.00;102509.59;4966085;28;20064;-81
2023/04/30 04:18:56;;;;;;;5.82;3.42;;;;;;;4.26;100.00;102510.47;5031054;28;20056;-84
2023/04/30 04:21:23;;;;;;;4.95;3.40;;;;;;;4.29;100.00;102518.47;5022528;28;20056;-81
2023/04/30 04:23:51;;;;;;;4.88;3.53;;;;;;;4.32;100.00;102517.75;5014876;28;20065;-82
2023/04/30 04:26:20;;;;;;;9.02;3.70;;;;;;;4.37;100.00;102515.41;5013160;28;20052;-81
2023/04/30 04:28:47;;;;;;;8.77;3.63;;;;;;;4.41;100.00;102522.59;5034575;28;20508;-81
2023/04/30 04:31:15;;;;;;;7.25;3.97;;;;;;;4.43;100.00;102519.22;4976823;28;20060;-81
2023/04/30 04:33:43;;;;;;;6.32;3.63;;;;;;;4.47;100.00;102517.69;4985980;28;20512;-81
2023/04/30 04:36:10;;;;;;;7.88;4.65;;;;;;;4.51;100.00;102524.88;5007504;28;20060;-80
2023/04/30 04:38:38;;;;;;;7.38;3.70;;;;;;;4.57;100.00;102530.41;5029077;28;20045;-81
2023/04/30 04:41:05;;;;;;;6.43;3.72;;;;;;;4.64;100.00;102524.72;4994339;28;20149;-80
2023/04/30 04:43:32;;;;;;;4.13;3.70;;;;;;;4.73;100.00;102518.22;5014021;28;20061;-82
2023/04/30 04:46:00;;;;;;;8.95;4.15;;;;;;;4.89;100.00;102523.44;4980691;28;20102;-81
2023/04/30 04:48:28;;;;;;;4.45;3.30;;;;;;;5.33;100.00;102518.72;5014186;28;20033;-80
2023/04/30 04:50:57;;;;;;;5.85;3.90;;;;;;;5.84;100.00;102523.09;5014106;28;20394;-80
2023/04/30 04:53:25;;;;;;;4.07;3.45;;;;;;;6.31;100.00;102525.34;5002203;28;20057;-81
2023/04/30 04:55:52;;;;;;;6.57;3.03;;;;;;;6.64;100.00;102524.28;5012983;28;20509;-82
2023/04/30 04:58:20;;;;;;;4.30;3.33;;;;;;;6.80;100.00;102535.47;5001531;28;20109;-81
2023/04/30 05:00:47;;;;;;;5.40;3.80;;;;;;;6.78;100.00;102531.88;5013520;28;20040;-81
2023/04/30 05:03:14;;;;;;;4.85;3.00;;;;;;;6.73;100.00;102520.28;5002627;28;20057;-81
2023/04/30 05:05:42;;;;;;;4.03;3.30;;;;;;;6.67;100.00;102531.38;5034244;28;20056;-81
2023/04/30 05:08:10;;;;;;;9.25;3.83;;;;;;;6.60;100.00;102529.34;5004785;28;20049;-81
2023/04/30 05:10:37;;;;;;;3.55;3.13;;;;;;;6.56;100.00;102537.84;4968898;28;20545;-82
2023/04/30 05:13:04;;;;;;;6.78;3.40;;;;;;;6.60;100.00;102530.22;5030700;28;20059;-83
2023/04/30 05:15:32;;;;;;;7.28;3.70;;;;;;;7.18;100.00;102533.66;5013204;28;20059;-82
2023/04/30 05:18:01;;;;;;;6.03;3.55;;;;;;;7.92;100.00;102531.56;4983033;28;20506;-80
2023/04/30 05:20:29;;;;;;;7.32;3.03;;;;;;;8.20;100.00;102528.31;5009968;28;20053;-83
2023/04/30 05:22:56;;;;;;;6.45;3.10;;;;;;;8.25;100.00;102528.50;5016605;28;20155;-82
2023/04/30 05:25:24;;;;;;;7.32;3.15;;;;;;;8.22;100.00;102533.63;5004419;28;20057;-83
2023/04/30 05:27:51;;;;;;;11.98;4.30;;;;;;;8.17;100.00;102531.72;5015207;28;20075;-83
2023/04/30 05:30:18;;;;;;;9.88;4.20;;;;;;;8.11;100.00;102536.75;5011115;28;20056;-82
2023/04/30 05:32:49;;;;;;;13.15;5.30;;;;;;;8.06;100.00;102532.13;4978567;28;20044;-82
2023/04/30 05:35:17;;;;;;;12.82;4.55;;;;;;;8.00;100.00;102551.16;5013837;28;20600;-82
2023/04/30 05:37:45;;;;;;;10.27;3.50;;;;;;;7.93;100.00;102557.88;5014728;28;20057;-83
2023/04/30 05:40:13;;;;;;;8.95;4.32;;;;;;;7.85;100.00;102542.66;5006301;28;20056;-82
2023/04/30 05:42:43;;;;;;;7.60;3.90;;;;;;;7.79;100.00;102548.53;4998092;28;20053;-82
2023/04/30 05:45:13;;;;;;;9.32;3.78;;;;;;;7.71;100.00;102544.69;5012474;28;20045;-82
2023/04/30 05:47:40;;;;;;;8.98;3.80;;;;;;;7.62;100.00;102545.22;4980433;28;20056;-81
2023/04/30 05:50:08;;;;;;;11.38;4.78;;;;;;;7.56;100.00;102544.94;5029074;28;20048;-81
2023/04/30 05:52:36;;;;;;;14.43;5.53;;;;;;;7.51;100.00;102546.47;5013882;28;20037;-81
2023/04/30 05:55:04;;;;;;;6.28;4.20;;;;;;;7.44;100.00;102544.41;5008158;28;20410;-81
2023/04/30 05:57:31;;;;;;;7.45;4.05;;;;;;;7.39;100.00;102550.38;5009886;28;20052;-81
2023/04/30 05:59:59;;;;;;;8.88;3.38;;;;;;;7.35;100.00;102547.53;5045996;28;20041;-81
2023/04/30 06:02:26;;;;;;;10.82;4.53;;;;;;;7.32;100.00;102550.91;4975484;28;20053;-81
2023/04/30 06:04:53;;;;;;;10.15;4.18;;;;;;;7.34;100.00;102551.00;5062149;28;20053;-82
2023/04/30 06:07:23;;;;;;;7.72;3.35;;;;;;;7.37;100.00;102551.09;5027045;28;20057;-82
2023/04/30 06:09:50;;;;;;;12.38;3.80;;;;;;;7.41;100.00;102553.06;5004988;28;20075;-82
2023/04/30 06:12:18;;;;;;;10.98;4.15;;;;;;;7.50;100.00;102557.78;5010709;28;20056;-82
2023/04/30 06:14:46;;;;;;;10.18;4.35;;;;;;;7.61;100.00;102565.28;4985506;28;20075;-83
2023/04/30 06:17:15;;;;;;;11.65;4.35;;;;;;;7.76;100.00;102570.28;5016118;28;20088;-82
2023/04/30 06:19:43;;;;;;;13.00;4.82;;;;;;;7.89;100.00;102571.72;5030483;28;20041;-83
2023/04/30 06:22:14;;;;;;;5.40;3.88;;;;;;;8.00;100.00;102569.53;5011286;28;20056;-82
2023/04/30 06:24:42;;;;;;;8.15;3.92;;;;;;;8.11;100.00;102578.75;4997957;28;20061;-82
2023/04/30 06:27:10;;;;;;;9.35;3.47;;;;;;;8.24;100.00;102587.13;5021047;28;20517;-80
2023/04/30 06:29:37;;;;;;;11.52;4.22;;;;;;;8.37;100.00;102574.56;5016063;28;20515;-82
2023/04/30 06:32:06;;;;;;;14.25;4.22;;;;;;;8.51;100.00;102579.50;5016394;28;20414;-81
2023/04/30 06:34:35;;;;;;;9.60;3.67;;;;;;;8.67;100.00;102573.97;4994043;28;20541;-82
2023/04/30 06:37:03;;;;;;;6.60;3.65;;;;;;;8.82;100.00;102578.03;5064594;28;20053;-82
2023/04/30 06:39:30;;;;;;;8.13;3.65;;;;;;;9.08;100.00;102574.66;5014235;28;20045;-82
2023/04/30 06:41:58;;;;;;;10.93;3.50;;;;;;;9.35;100.00;102579.13;5025248;28;20073;-82
2023/04/30 06:44:27;;;;;;;13.27;4.57;;;;;;;9.54;100.00;102571.03;5030001;28;20060;-81
2023/04/30 06:46:57;;;;;;;6.40;4.00;;;;;;;9.67;100.00;102572.34;5049858;28;20053;-82
2023/04/30 06:49:24;;;;;;;9.87;3.13;;;;;;;9.79;100.00;102571.88;4967156;28;20119;-82
2023/04/30 06:51:51;;;;;;;5.32;3.13;;;;;;;9.92;100.00;102567.91;5033138;28;20063;-82
2023/04/30 06:54:21;;;;;;;17.40;3.63;;;;;;;9.90;100.00;102569.63;5030386;28;20053;-82
2023/04/30 06:56:48;;;;;;;7.65;3.58;;;;;;;9.92;100.00;102573.19;4979089;28;20589;-81
2023/04/30 06:59:16;;;;;;;11.18;3.88;;;;;;;9.98;100.00;102572.50;5014506;28;20060;-81
2023/04/30 07:01:46;;;;;;;12.63;3.95;;;;;;;10.02;100.00;102564.78;4985214;28;20055;-82
2023/04/30 07:04:15;;;;;;;6.18;2.80;;;;;;;10.08;100.00;102564.97;5031200;28;20052;-82
2023/04/30 07:06:42;;;;;;;9.50;3.72;;;;;;;10.03;100.00;102563.03;4958869;28;20065;-82
2023/04/30 07:09:10;;;;;;;9.15;4.65;;;;;;;10.09;100.00;102561.50;5031284;28;20045;-81
2023/04/30 07:11:38;;;;;;;5.80;3.65;;;;;;;10.31;100.00;102567.47;5002660;28;20076;-82
2023/04/30 07:14:06;;;;;;;12.25;3.13;;;;;;;10.37;100.00;102567.66;5008795;28;20513;-82
2023/04/30 07:16:33;;;;;;;10.88;3.92;;;;;;;10.41;100.00;102558.13;5005096;28;20785;-82
2023/04/30 07:19:01;;;;;;;7.22;3.13;;;;;;;10.38;100.00;102569.47;5032909;28;20060;-83
2023/04/30 07:21:28;;;;;;;9.65;4.22;;;;;;;10.49;100.00;102568.06;4985795;28;20047;-82
2023/04/30 07:23:55;;;;;;;12.18;3.63;;;;;;;10.64;100.00;102556.19;4999111;28;20052;-82
2023/04/30 07:26:25;;;;;;;7.68;3.40;;;;;;;10.71;100.00;102564.31;4985094;28;20052;-83
2023/04/30 07:28:52;;;;;;;12.82;3.78;;;;;;;10.69;100.00;102559.84;5029385;28;20486;-83
2023/04/30 07:31:19;;;;;;;7.40;4.03;;;;;;;10.64;100.00;102557.09;5046593;28;20049;-83
2023/04/30 07:33:49;;;;;;;6.65;3.20;;;;;;;10.65;100.00;102564.13;5004621;28;20038;-82
2023/04/30 07:36:16;;;;;;;7.28;3.92;;;;;;;10.64;100.00;102556.19;5008272;28;20045;-82
2023/04/30 07:38:44;;;;;;;10.75;3.03;;;;;;;10.65;100.00;102557.97;4979986;28;20040;-83
2023/04/30 07:41:12;;;;;;;7.20;2.38;;;;;;;10.65;100.00;102557.97;5023493;28;20052;-82
2023/04/30 07:43:40;;;;;;;6.13;2.17;;;;;;;10.61;100.00;102561.38;5016918;28;20429;-83
2023/04/30 07:46:07;;;;;;;5.90;2.03;;;;;;;10.50;100.00;102572.47;4966827;28;20491;-82
2023/04/30 07:48:34;;;;;;;6.20;2.15;;;;;;;10.40;100.00;102578.31;5017184;28;20048;-82
2023/04/30 07:51:03;;;;;;;10.20;2.47;;;;;;;10.20;100.00;102580.25;5022159;28;20410;-83
2023/04/30 07:53:31;;;;;;;6.55;2.13;;;;;;;10.01;100.00;102573.50;4997175;28;20068;-83
2023/04/30 07:55:58;;;;;;;6.63;2.10;;;;;;;9.89;100.00;102586.28;5024214;28;20053;-82
2023/04/30 07:58:25;;;;;;;10.77;2.25;;;;;;;9.72;100.00;102573.41;5033492;28;20811;-83
2023/04/30 08:00:53;;;;;;;9.13;2.78;;;;;;;9.71;100.00;102579.50;5025575;28;20033;-82
2023/04/30 08:03:20;;;;;;;6.68;2.55;;;;;;;9.70;100.00;102582.13;5008044;28;20063;-82
2023/04/30 08:05:47;;;;;;;5.40;2.17;;;;;;;9.67;100.00;102596.03;5033268;28;20056;-81
2023/04/30 08:08:15;;;;;;;4.88;2.05;;;;;;;9.66;100.00;102586.38;4987204;28;20061;-82
2023/04/30 08:10:42;;;;;;;8.57;2.60;;;;;;;9.67;100.00;102590.78;5014693;28;20055;-82
2023/04/30 08:13:10;;;;;;;7.53;2.35;;;;;;;9.77;100.00;102597.25;4999484;28;20418;-82
2023/04/30 08:15:52;;;;;;;9.73;2.25;;;;;;;9.82;100.00;102592.16;4997521;28;20037;-83
2023/04/30 08:18:20;;;;;;;8.75;2.15;;;;;;;9.98;100.00;102583.94;5008648;28;20059;-84
2023/04/30 08:20:47;;;;;;;7.18;2.25;;;;;;;10.15;100.00;102593.31;5017456;28;20040;-82
2023/04/30 08:23:15;;;;;;;7.55;2.17;;;;;;;10.15;100.00;102593.31;5022417;28;20049;-82
2023/04/30 08:25:43;;;;;;;6.88;2.22;;;;;;;10.14;100.00;102594.13;4991183;28;20056;-85
2023/04/30 08:28:10;;;;;;;5.13;2.42;;;;;;;10.24;100.00;102584.78;5013655;28;20049;-84
2023/04/30 08:30:38;;;;;;;7.22;1.98;;;;;;;10.33;100.00;102595.66;5002898;28;20049;-82
2023/04/30 08:33:05;;;;;;;9.65;2.70;;;;;;;10.40;100.00;102590.59;5025279;28;20044;-82
2023/04/30 08:35:33;;;;;;;6.97;2.05;;;;;;;10.47;100.00;102587.28;5005568;28;20041;-82
2023/04/30 08:38:00;;;;;;;6.65;2.60;;;;;;;10.56;100.00;102584.06;5021418;28;20132;-82
2023/04/30 08:40:29;;;;;;;8.45;2.25;;;;;;;10.65;100.00;102582.59;4964032;28;20382;-82
2023/04/30 08:43:17;;;;;;;6.78;1.75;;;;;;;10.64;100.00;102580.81;5015592;28;20517;-81
2023/04/30 08:45:45;;;;;;;10.15;2.40;;;;;;;10.63;100.00;102581.66;5038220;28;20144;-83
2023/04/30 08:48:15;;;;;;;7.68;2.60;;;;;;;10.72;100.00;102579.31;5025792;28;20052;-82
2023/04/30 08:50:42;;;;;;;6.38;2.55;;;;;;;10.74;100.00;102582.00;5008529;28;20041;-82
2023/04/30 08:53:13;;;;;;;6.55;2.17;;;;;;;10.75;100.00;102596.06;4988187;28;20048;-82
2023/04/30 08:55:41;;;;;;;8.23;2.70;;;;;;;10.75;100.00;102586.41;4968913;28;20059;-82
2023/04/30 08:58:10;;;;;;;7.43;2.58;;;;;;;10.81;100.00;102591.88;5007318;28;20086;-82
2023/04/30 09:00:38;;;;;;;7.28;2.00;;;;;;;10.92;100.00;102584.25;5014101;28;20292;-82
2023/04/30 09:03:07;;;;;;;8.35;2.60;;;;;;;10.95;100.00;102583.47;5020276;28;20045;-83
2023/04/30 09:05:37;;;;;;;4.57;2.00;;;;;;;10.93;100.00;102586.06;5004145;28;20045;-82
2023/04/30 09:08:07;;;;;;;7.60;2.58;;;;;;;10.90;100.00;102591.25;5032608;28;20060;-81
2023/04/30 09:10:35;;;;;;;6.00;1.98;;;;;;;10.89;100.00;102589.47;4969844;28;20534;-81
2023/04/30 09:13:02;;;;;;;5.88;2.10;;;;;;;10.86;100.00;102584.97;5020777;28;20052;-81
2023/04/30 09:15:32;;;;;;;6.70;2.90;;;;;;;10.90;100.00;102583.34;4995227;28;20410;-82
2023/04/30 09:18:16;;;;;;;8.23;2.35;;;;;;;10.89;100.00;102581.56;5013400;28;20056;-81
2023/04/30 09:21:00;;;;;;;7.25;2.25;;;;;;;10.90;100.00;102581.56;5035595;28;20045;-81
2023/04/30 09:23:29;;;;;;;5.38;2.17;;;;;;;10.98;100.00;102584.44;4999557;28;20453;-80
2023/04/30 09:25:56;;;;;;;4.80;2.15;;;;;;;11.12;100.00;102582.22;4972914;28;20060;-82
2023/04/30 09:28:24;;;;;;;11.43;2.50;;;;;;;11.18;100.00;102579.75;5029018;28;20052;-82
2023/04/30 09:30:52;;;;;;;5.45;2.35;;;;;;;11.28;100.00;102580.91;5025480;28;20045;-85
2023/04/30 09:33:19;;;;;;;6.07;2.03;;;;;;;11.39;100.00;102581.22;4996523;28;20057;-85
2023/04/30 09:35:50;;;;;;;7.20;2.33;;;;;;;11.50;100.00;102585.91;4997205;28;20048;-84
2023/04/30 09:38:52;;;;;;;8.02;2.50;;;;;;;11.69;100.00;102582.03;5030311;28;20036;-84
2023/04/30 09:41:26;;;;;;;6.57;2.60;;;;;;;11.89;100.00;102585.22;4987343;28;20056;-87
2023/04/30 09:44:02;;;;;;;8.90;3.00;;;;;;;11.95;100.00;102576.56;5028727;28;20482;-84
2023/04/30 09:46:46;;;;;;;11.35;2.70;;;;;;;12.00;100.00;102582.88;5015472;28;20072;-85
2023/04/30 09:49:37;;;;;;;4.15;2.33;;;;;;;11.99;100.00;102569.59;5019648;28;20387;-85
2023/04/30 09:52:21;;;;;;;4.85;2.45;;;;;;;11.95;100.00;102571.28;5022332;28;20056;-86
2023/04/30 09:54:48;;;;;;;9.75;2.67;;;;;;;12.03;100.00;102577.63;5006611;28;20060;-85
2023/04/30 09:57:26;;;;;;;5.90;2.25;;;;;;;12.05;100.00;102577.69;4984593;28;20048;-85
2023/04/30 09:59:56;;;;;;;5.18;2.50;;;;;;;11.95;99.56;102575.69;5021806;28;20429;-85
2023/04/30 10:02:25;;;;;;;4.05;1.83;;;;;;;11.94;100.00;102576.50;5027672;28;20033;-84
2023/04/30 10:04:56;;;;;;;7.22;2.13;;;;;;;11.95;100.00;102571.28;5009107;28;20056;-84
2023/04/30 10:07:30;;;;;;;6.82;2.60;;;;;;;12.05;100.00;102568.00;5020390;28;20057;-83
2023/04/30 10:10:19;;;;;;;3.92;2.88;;;;;;;11.92;95.63;102562.38;5007018;28;20113;-85
2023/04/30 10:12:50;;;;;;;6.40;2.30;;;;;;;11.93;99.18;102564.16;5022874;28;20053;-85
2023/04/30 10:15:44;;;;;;;6.93;2.60;;;;;;;11.81;92.94;102568.22;5045510;28;20053;-83
2023/04/30 10:18:18;;;;;;;5.22;2.22;;;;;;;11.65;95.29;102564.31;5017293;28;20060;-83
2023/04/30 10:20:47;;;;;;;6.78;2.30;;;;;;;11.62;95.78;102553.66;5009470;28;20053;-86
2023/04/30 10:23:16;;;;;;;5.63;2.70;;;;;;;11.60;96.93;102546.56;5026820;28;20479;-86
2023/04/30 10:25:43;;;;;;;4.00;1.98;;;;;;;11.73;96.33;102548.66;5007350;28;20045;-84
2023/04/30 10:28:11;;;;;;;5.90;2.42;;;;;;;11.87;97.50;102541.06;4989640;28;20608;-84
2023/04/30 10:30:43;;;;;;;4.93;2.05;;;;;;;12.09;96.97;102535.50;5007994;28;20101;-87
2023/04/30 10:33:14;;;;;;;4.22;2.05;;;;;;;12.26;95.03;102541.19;5013526;28;20045;-85
2023/04/30 10:36:03;;;;;;;4.25;2.05;;;;;;;12.43;93.01;102535.41;5019098;28;20529;-87
2023/04/30 10:38:31;;;;;;;7.85;2.20;;;;;;;12.47;91.17;102530.19;5036935;28;20053;-85
2023/04/30 10:41:00;;;;;;;5.40;2.03;;;;;;;12.50;90.54;102524.09;5011034;28;20057;-83
2023/04/30 10:43:32;;;;;;;4.65;1.88;;;;;;;12.60;93.01;102523.44;5027010;28;20045;-84
2023/04/30 10:45:59;;;;;;;7.75;1.92;;;;;;;12.79;93.98;102524.72;5027609;28;20045;-85
2023/04/30 10:48:29;;;;;;;5.05;1.90;;;;;;;12.92;91.59;102517.94;5028720;28;20172;-85
2023/04/30 10:51:17;;;;;;;7.10;2.20;;;;;;;13.14;92.52;102519.25;4980302;28;20402;-84
2023/04/30 10:53:44;;;;;;;4.45;1.85;;;;;;;13.26;88.75;102518.59;5022076;28;20042;-84
2023/04/30 10:56:12;;;;;;;4.93;1.50;;;;;;;13.23;85.86;102522.06;5019276;28;20080;-83
2023/04/30 10:58:39;;;;;;;6.10;1.67;;;;;;;13.32;87.63;102512.53;5013210;28;20045;-85
2023/04/30 11:01:11;;;;;;;6.32;1.45;;;;;;;13.25;81.78;102504.47;5013177;28;20038;-85
2023/04/30 11:04:00;;;;;;;6.88;1.92;;;;;;;13.10;81.72;102500.63;5013917;28;20420;-83
2023/04/30 11:06:49;;;;;;;8.15;1.85;;;;;;;13.14;80.09;102490.13;5039436;28;20057;-84
2023/04/30 11:09:16;;;;;;;3.38;1.63;;;;;;;13.24;84.64;102494.72;5042473;28;20120;-83
2023/04/30 11:11:46;;;;;;;7.25;2.15;;;;;;;13.26;82.55;102494.75;5002046;28;20574;-82
2023/04/30 11:14:19;;;;;;;5.15;2.17;;;;;;;13.23;82.01;102487.66;4985467;28;20061;-84
2023/04/30 11:16:52;;;;;;;6.05;1.88;;;;;;;13.23;80.63;102492.03;5015826;28;20061;-83
2023/04/30 11:19:26;;;;;;;4.68;1.73;;;;;;;13.29;81.57;102489.53;5033342;28;20056;-84
2023/04/30 11:22:02;;;;;;;4.47;1.92;;;;;;;13.39;80.51;102488.84;4991643;28;20510;-87
2023/04/30 11:24:52;;;;;;;9.07;2.33;;;;;;;13.53;81.45;102483.78;4994130;28;20053;-82
2023/04/30 11:27:29;;;;;;;4.63;2.45;;;;;;;13.59;80.75;102488.28;5023701;28;20060;-85
2023/04/30 11:29:58;;;;;;;5.03;1.70;;;;;;;13.73;81.70;102483.25;4996148;28;20049;-86
2023/04/30 11:32:36;;;;;;;4.05;1.63;;;;;;;13.84;81.65;102479.88;4992474;28;20060;-86
2023/04/30 11:35:05;;;;;;;4.90;1.75;;;;;;;13.87;79.96;102475.50;5034551;28;20151;-86